createdAt,value
2017-05-21T00:00:34.213Z,95.94
2017-05-21T00:01:34.259Z,95.37
2017-05-21T00:02:34.281Z,96.61
2017-05-21T00:03:34.327Z,97.85
2017-05-21T00:04:34.362Z,96.7
2017-05-21T00:05:34.392Z,97.75
2017-05-21T00:06:34.407Z,96.7
2017-05-21T00:07:34.461Z,96.32
2017-05-21T00:08:34.497Z,95.84
2017-05-21T00:09:34.529Z,95.56
2017-05-21T00:10:34.553Z,94.51
2017-05-21T00:11:34.591Z,94.03
2017-05-21T00:12:34.627Z,93.93
2017-05-21T00:13:34.661Z,96.13
2017-05-21T00:14:34.693Z,96.32
2017-05-21T00:15:34.711Z,97.85
2017-05-21T00:16:34.761Z,97.37
2017-05-21T00:17:34.793Z,96.7
2017-05-21T00:18:34.826Z,97.37
2017-05-21T00:19:34.868Z,97.75
2017-05-21T00:20:34.882Z,98.8
2017-05-21T00:21:34.926Z,99.66
2017-05-21T00:22:34.957Z,98.7
2017-05-21T00:23:34.992Z,98.03
2017-05-21T00:24:35.023Z,96.61
2017-05-21T00:25:35.061Z,96.13
2017-05-21T00:26:35.100Z,95.65
2017-05-21T00:27:35.114Z,96.41
2017-05-21T00:28:35.159Z,99.18
2017-05-21T00:29:35.192Z,98.13
2017-05-21T00:30:35.232Z,97.66
2017-05-21T00:31:35.261Z,97.17
2017-05-21T00:32:35.295Z,96.61
2017-05-21T00:33:35.336Z,96.08
2017-05-21T00:34:35.353Z,95.51
2017-05-21T00:35:35.390Z,95.51
2017-05-21T00:36:35.431Z,95.7
2017-05-21T00:37:35.459Z,96.46
2017-05-21T00:38:35.481Z,96.61
2017-05-21T00:39:35.516Z,96.17
2017-05-21T00:40:35.530Z,95.7
2017-05-21T00:41:37.322Z,98.27
2017-05-21T00:42:35.630Z,99.99
2017-05-21T00:43:35.661Z,99.46
2017-05-21T00:44:35.702Z,98.22
2017-05-21T00:45:35.728Z,97.32
2017-05-21T00:46:35.744Z,96.56
2017-05-21T00:47:35.794Z,96.89
2017-05-21T00:48:35.834Z,96.08
2017-05-21T00:49:35.841Z,95.79
2017-05-21T00:50:35.892Z,98.85
2017-05-21T00:51:35.920Z,99.99
2017-05-21T00:52:35.938Z,99.99
2017-05-21T00:53:35.993Z,99.99
2017-05-21T00:54:36.028Z,99.99
2017-05-21T00:55:36.045Z,99.99
2017-05-21T00:56:36.094Z,99.99
2017-05-21T00:57:36.111Z,99.99
2017-05-21T00:58:36.180Z,99.99
2017-05-21T00:59:36.191Z,99.99
2017-05-21T01:00:36.234Z,99.99
2017-05-21T01:01:36.239Z,99.99
2017-05-21T01:02:36.288Z,99.99
2017-05-21T01:03:36.326Z,99.99
2017-05-21T01:04:36.351Z,99.99
2017-05-21T01:05:36.385Z,99.99
2017-05-21T01:06:36.418Z,99.99
2017-05-21T01:07:36.450Z,99.99
2017-05-21T01:08:36.484Z,99.99
2017-05-21T01:09:36.526Z,99.99
2017-05-21T01:10:36.526Z,99.99
2017-05-21T01:11:36.587Z,99.99
2017-05-21T01:12:36.616Z,99.99
2017-05-21T01:13:36.669Z,99.99
2017-05-21T01:14:36.683Z,99.99
2017-05-21T01:15:36.720Z,99.99
2017-05-21T01:16:36.741Z,99.99
2017-05-21T01:17:36.794Z,99.99
2017-05-21T01:18:36.819Z,99.99
2017-05-21T01:19:36.847Z,99.99
2017-05-21T01:20:36.887Z,99.99
2017-05-21T01:21:36.920Z,99.99
2017-05-21T01:22:36.944Z,99.99
2017-05-21T01:23:36.981Z,99.99
2017-05-21T01:24:37.012Z,99.99
2017-05-21T01:25:37.051Z,99.99
2017-05-21T01:26:37.059Z,99.99
2017-05-21T01:27:37.118Z,99.99
2017-05-21T01:28:37.141Z,99.99
2017-05-21T01:29:37.176Z,99.99
2017-05-21T01:30:37.213Z,99.99
2017-05-21T01:31:37.248Z,99.99
2017-05-21T01:32:37.274Z,99.99
2017-05-21T01:33:37.313Z,99.99
2017-05-21T01:34:37.336Z,99.99
2017-05-21T01:35:37.371Z,99.99
2017-05-21T01:36:37.392Z,99.99
2017-05-21T01:37:37.457Z,99.99
2017-05-21T01:38:37.472Z,99.99
2017-05-21T01:39:37.503Z,99.99
2017-05-21T01:40:37.541Z,99.99
2017-05-21T01:41:37.563Z,99.99
2017-05-21T01:42:37.611Z,99.99
2017-05-21T01:43:37.634Z,99.99
2017-05-21T01:44:37.664Z,99.99
2017-05-21T01:45:37.698Z,99.99
2017-05-21T01:46:37.744Z,99.99
2017-05-21T01:47:37.751Z,99.99
2017-05-21T01:48:37.796Z,99.99
2017-05-21T01:49:37.834Z,99.99
2017-05-21T01:50:37.865Z,99.99
2017-05-21T01:51:37.894Z,99.99
2017-05-21T01:52:37.931Z,99.99
2017-05-21T01:53:37.963Z,99.99
2017-05-21T01:54:37.999Z,99.99
2017-05-21T01:55:38.028Z,99.99
2017-05-21T01:56:38.060Z,99.99
2017-05-21T01:57:38.097Z,99.99
2017-05-21T01:58:38.130Z,99.99
2017-05-21T01:59:38.155Z,99.99
2017-05-21T02:00:38.196Z,99.99
2017-05-21T02:01:38.229Z,99.99
2017-05-21T02:02:38.265Z,99.99
2017-05-21T02:03:38.297Z,99.99
2017-05-21T02:04:38.324Z,99.99
2017-05-21T02:05:38.356Z,99.99
2017-05-21T02:06:38.384Z,99.99
2017-05-21T02:07:38.417Z,99.99
2017-05-21T02:08:38.454Z,99.99
2017-05-21T02:09:38.461Z,99.99
2017-05-21T02:10:38.510Z,99.99
2017-05-21T02:11:38.550Z,99.99
2017-05-21T02:12:38.564Z,99.99
2017-05-21T02:13:38.613Z,99.99
2017-05-21T02:14:38.644Z,99.99
2017-05-21T02:15:38.668Z,99.99
2017-05-21T02:16:38.710Z,99.99
2017-05-21T02:17:38.746Z,99.99
2017-05-21T02:18:38.757Z,99.99
2017-05-21T02:19:38.809Z,99.99
2017-05-21T02:20:38.839Z,99.99
2017-05-21T02:21:38.853Z,99.99
2017-05-21T02:22:38.906Z,99.99
2017-05-21T02:23:38.933Z,99.99
2017-05-21T02:24:38.964Z,99.99
2017-05-21T02:25:39.002Z,99.99
2017-05-21T02:26:39.012Z,99.99
2017-05-21T02:27:39.046Z,99.99
2017-05-21T02:28:39.096Z,99.99
2017-05-21T02:29:39.134Z,99.99
2017-05-21T02:30:39.162Z,99.99
2017-05-21T02:31:39.203Z,99.99
2017-05-21T02:32:39.224Z,99.99
2017-05-21T02:33:39.249Z,99.99
2017-05-21T02:34:39.292Z,99.99
2017-05-21T02:35:39.330Z,99.99
2017-05-21T02:36:39.359Z,99.99
2017-05-21T02:37:39.391Z,99.99
2017-05-21T02:38:39.398Z,99.99
2017-05-21T02:39:39.459Z,99.99
2017-05-21T02:40:39.492Z,99.99
2017-05-21T02:41:39.523Z,99.99
2017-05-21T02:42:39.563Z,99.99
2017-05-21T02:43:39.566Z,99.99
2017-05-21T02:44:39.616Z,99.99
2017-05-21T02:45:39.751Z,99.99
2017-05-21T02:46:39.669Z,99.99
2017-05-21T02:47:39.712Z,99.99
2017-05-21T02:48:39.741Z,99.99
2017-05-21T02:49:39.754Z,99.99
2017-05-21T02:50:39.807Z,99.99
2017-05-21T02:51:39.842Z,99.99
2017-05-21T02:52:39.849Z,99.99
2017-05-21T02:53:39.906Z,99.99
2017-05-21T02:54:39.913Z,99.99
2017-05-21T02:55:39.967Z,99.99
2017-05-21T02:56:39.992Z,99.99
2017-05-21T02:57:40.039Z,99.99
2017-05-21T02:58:40.069Z,99.99
2017-05-21T02:59:40.099Z,99.99
2017-05-21T03:00:40.134Z,99.99
2017-05-21T03:01:40.149Z,99.99
2017-05-21T03:02:40.189Z,99.99
2017-05-21T03:03:40.255Z,99.99
2017-05-21T03:04:40.264Z,99.99
2017-05-21T03:05:40.291Z,99.99
2017-05-21T03:06:40.308Z,99.99
2017-05-21T03:07:40.360Z,99.99
2017-05-21T03:08:40.385Z,99.99
2017-05-21T03:09:40.425Z,99.99
2017-05-21T03:10:40.454Z,99.99
2017-05-21T03:11:40.484Z,99.99
2017-05-21T03:12:40.518Z,99.99
2017-05-21T03:13:40.556Z,99.99
2017-05-21T03:14:40.567Z,99.99
2017-05-21T03:15:40.611Z,99.99
2017-05-21T03:16:40.624Z,99.99
2017-05-21T03:17:40.667Z,99.99
2017-05-21T03:18:40.712Z,99.99
2017-05-21T03:19:40.739Z,99.99
2017-05-21T03:20:40.756Z,99.99
2017-05-21T03:21:40.810Z,99.99
2017-05-21T03:22:40.831Z,99.99
2017-05-21T03:23:40.863Z,99.99
2017-05-21T03:24:40.898Z,99.99
2017-05-21T03:25:40.935Z,99.99
2017-05-21T03:26:40.948Z,99.99
2017-05-21T03:27:40.994Z,99.99
2017-05-21T03:28:41.042Z,99.99
2017-05-21T03:29:41.068Z,99.99
2017-05-21T03:30:41.104Z,99.99
2017-05-21T03:31:41.131Z,99.99
2017-05-21T03:32:41.170Z,99.99
2017-05-21T03:33:41.192Z,99.99
2017-05-21T03:34:41.217Z,99.99
2017-05-21T03:35:41.256Z,99.99
2017-05-21T03:36:41.387Z,99.99
2017-05-21T03:37:41.331Z,99.99
2017-05-21T03:38:41.344Z,99.99
2017-05-21T03:39:41.384Z,99.99
2017-05-21T03:40:41.420Z,99.99
2017-05-21T03:41:41.452Z,99.99
2017-05-21T03:42:41.463Z,99.99
2017-05-21T03:43:41.509Z,99.99
2017-05-21T03:44:41.543Z,99.99
2017-05-21T03:45:41.562Z,99.99
2017-05-21T03:46:41.596Z,99.99
2017-05-21T03:47:41.657Z,99.99
2017-05-21T03:48:41.663Z,99.99
2017-05-21T03:49:41.706Z,99.99
2017-05-21T03:50:41.739Z,99.99
2017-05-21T03:51:41.754Z,99.99
2017-05-21T03:52:41.792Z,99.99
2017-05-21T03:53:41.845Z,99.99
2017-05-21T03:54:41.856Z,99.99
2017-05-21T03:55:41.901Z,99.99
2017-05-21T03:56:41.931Z,99.99
2017-05-21T03:57:41.966Z,99.99
2017-05-21T03:58:42.008Z,99.99
2017-05-21T03:59:42.016Z,99.99
2017-05-21T04:00:42.069Z,99.99
2017-05-21T04:01:42.100Z,99.99
2017-05-21T04:02:42.120Z,99.99
2017-05-21T04:03:42.183Z,99.99
2017-05-21T04:04:42.198Z,99.99
2017-05-21T04:05:42.234Z,99.99
2017-05-21T04:06:42.260Z,99.99
2017-05-21T04:07:42.269Z,99.99
2017-05-21T04:08:42.331Z,99.99
2017-05-21T04:09:42.367Z,99.99
2017-05-21T04:10:42.382Z,99.99
2017-05-21T04:11:42.425Z,99.99
2017-05-21T04:12:42.464Z,99.99
2017-05-21T04:13:42.486Z,99.99
2017-05-21T04:14:42.518Z,99.99
2017-05-21T04:15:42.562Z,99.99
2017-05-21T04:16:42.600Z,99.99
2017-05-21T04:17:42.771Z,99.99
2017-05-21T04:18:42.685Z,99.99
2017-05-21T04:19:42.663Z,99.99
2017-05-21T04:20:42.716Z,99.99
2017-05-21T04:21:42.765Z,99.99
2017-05-21T04:22:43.067Z,99.99
2017-05-21T04:23:42.814Z,99.99
2017-05-21T04:24:42.850Z,99.99
2017-05-21T04:25:42.870Z,99.99
2017-05-21T04:26:42.915Z,99.99
2017-05-21T04:27:42.950Z,99.99
2017-05-21T04:28:43.067Z,99.99
2017-05-21T04:29:43.009Z,99.99
2017-05-21T04:30:43.058Z,99.99
2017-05-21T04:31:43.061Z,99.99
2017-05-21T04:32:43.113Z,99.99
2017-05-21T04:33:43.143Z,99.99
2017-05-21T04:34:43.180Z,99.99
2017-05-21T04:35:43.205Z,99.99
2017-05-21T04:36:43.241Z,99.99
2017-05-21T04:37:43.313Z,99.99
2017-05-21T04:38:43.323Z,99.99
2017-05-21T04:39:43.375Z,99.99
2017-05-21T04:40:43.381Z,99.99
2017-05-21T04:41:43.420Z,99.42
2017-05-21T04:42:43.541Z,99.04
2017-05-21T04:43:43.483Z,98.9
2017-05-21T04:44:43.522Z,97.94
2017-05-21T04:45:43.549Z,97.94
2017-05-21T04:46:43.563Z,98.32
2017-05-21T04:47:43.624Z,97.66
2017-05-21T04:48:43.648Z,98.32
2017-05-21T04:49:43.672Z,98.03
2017-05-21T04:50:43.716Z,98.32
2017-05-21T04:51:43.754Z,97.66
2017-05-21T04:52:43.781Z,97.47
2017-05-21T04:53:43.893Z,97.23
2017-05-21T04:54:43.863Z,96.56
2017-05-21T04:55:43.884Z,96.56
2017-05-21T04:56:44.044Z,95.89
2017-05-21T04:57:43.952Z,96.27
2017-05-21T04:58:43.964Z,95.89
2017-05-21T04:59:44.020Z,96.37
2017-05-21T05:00:44.070Z,96.08
2017-05-21T05:01:44.069Z,95.61
2017-05-21T05:02:44.142Z,95.32
2017-05-21T05:03:44.162Z,94.74
2017-05-21T05:04:44.176Z,94.6
2017-05-21T05:05:44.219Z,94.22
2017-05-21T05:06:44.262Z,94.6
2017-05-21T05:07:44.279Z,93.93
2017-05-21T05:08:44.448Z,93.45
2017-05-21T05:09:44.425Z,92.79
2017-05-21T05:10:44.378Z,92.88
2017-05-21T05:11:44.420Z,92.79
2017-05-21T05:12:44.473Z,92.93
2017-05-21T05:13:44.607Z,92.25
2017-05-21T05:14:44.537Z,91.88
2017-05-21T05:15:44.562Z,91.97
2017-05-21T05:16:44.593Z,91.49
2017-05-21T05:17:44.642Z,90.3
2017-05-21T05:18:44.676Z,88.9
2017-05-21T05:19:44.716Z,88.28
2017-05-21T05:20:44.753Z,87.41
2017-05-21T05:21:44.760Z,87.32
2017-05-21T05:22:44.806Z,86.6
2017-05-21T05:23:44.834Z,85.93
2017-05-21T05:24:44.886Z,85.45
2017-05-21T05:25:44.920Z,85.16
2017-05-21T05:26:44.943Z,85.16
2017-05-21T05:27:44.965Z,84.2
2017-05-21T05:28:45.021Z,84.25
2017-05-21T05:29:45.269Z,83.29
2017-05-21T05:30:45.076Z,81.51
2017-05-21T05:31:45.127Z,80.68
2017-05-21T05:32:45.174Z,79.72
2017-05-21T05:33:45.217Z,79.19
2017-05-21T05:34:45.224Z,79.72
2017-05-21T05:35:45.276Z,80.01
2017-05-21T05:36:45.305Z,79.91
2017-05-21T05:37:45.347Z,79.24
2017-05-21T05:38:45.379Z,77.75
2017-05-21T05:39:45.400Z,76.64
2017-05-21T05:40:45.436Z,76.09
2017-05-21T05:41:45.483Z,76.19
2017-05-21T05:42:45.529Z,75.9
2017-05-21T05:43:45.568Z,76.25
2017-05-21T05:44:45.602Z,75.87
2017-05-21T05:45:45.639Z,76.34
2017-05-21T05:46:45.681Z,76.64
2017-05-21T05:47:45.718Z,76.98
2017-05-21T05:48:45.750Z,77.94
2017-05-21T05:49:45.801Z,77.84
2017-05-21T05:50:45.819Z,77.46
2017-05-21T05:51:45.866Z,77.56
2017-05-21T05:52:45.877Z,78.03
2017-05-21T05:53:45.939Z,77.46
2017-05-21T05:54:45.958Z,77.46
2017-05-21T05:55:45.984Z,77.46
2017-05-21T05:56:46.053Z,77.36
2017-05-21T05:57:46.088Z,76.98
2017-05-21T05:58:46.119Z,76.92
2017-05-21T05:59:46.458Z,76.64
2017-05-21T06:00:46.178Z,76.92
2017-05-21T06:01:46.219Z,76.88
2017-05-21T06:02:46.270Z,76.54
2017-05-21T06:03:46.304Z,75.73
2017-05-21T06:04:46.593Z,74.81
2017-05-21T06:05:46.383Z,74.13
2017-05-21T06:06:46.412Z,73.6
2017-05-21T06:07:46.454Z,73.21
2017-05-21T06:08:46.488Z,72.77
2017-05-21T06:09:46.529Z,72.29
2017-05-21T06:10:46.558Z,70.5
2017-05-21T06:11:46.586Z,68.99
2017-05-21T06:12:46.638Z,66.24
2017-05-21T06:13:46.684Z,65.3
2017-05-21T06:14:46.714Z,63.34
2017-05-21T06:15:46.748Z,60.25
2017-05-21T06:16:46.768Z,57.63
2017-05-21T06:17:46.828Z,55.78
2017-05-21T06:18:46.869Z,53.7
2017-05-21T06:19:46.877Z,50.77
2017-05-21T06:20:46.951Z,49.37
2017-05-21T06:21:46.972Z,47.44
2017-05-21T06:22:47.005Z,46.5
2017-05-21T06:23:47.069Z,45.86
2017-05-21T06:24:47.114Z,45.39
2017-05-21T06:25:47.142Z,43.76
2017-05-21T06:26:47.191Z,43.78
2017-05-21T06:27:47.224Z,43.22
2017-05-21T06:28:47.267Z,42.07
2017-05-21T06:29:47.313Z,41.7
2017-05-21T06:30:47.352Z,41.91
2017-05-21T06:31:47.384Z,41.74
2017-05-21T06:32:48.210Z,41.17
2017-05-21T06:33:47.487Z,39.43
2017-05-21T06:34:47.481Z,38.94
2017-05-21T06:35:47.563Z,39.14
2017-05-21T06:36:47.566Z,38.55
2017-05-21T06:37:47.650Z,38.94
2017-05-21T06:38:47.687Z,38.67
2017-05-21T06:39:47.728Z,38.57
2017-05-21T06:40:47.758Z,38.49
2017-05-21T06:41:47.821Z,38.12
2017-05-21T06:42:47.857Z,37.45
2017-05-21T06:43:47.887Z,36.86
2017-05-21T06:44:47.942Z,36.49
2017-05-21T06:45:47.988Z,36.18
2017-05-21T06:46:48.026Z,36.57
2017-05-21T06:47:48.077Z,36.09
2017-05-21T06:48:48.125Z,36.39
2017-05-21T06:49:48.160Z,36.51
2017-05-21T06:50:48.218Z,35.42
2017-05-21T06:51:48.207Z,35.34
2017-05-21T06:52:49.021Z,34.67
2017-05-21T06:53:49.075Z,35.26
2017-05-21T06:54:48.783Z,35.18
2017-05-21T06:55:48.679Z,34.9
2017-05-21T06:56:48.477Z,34.43
2017-05-21T06:57:48.516Z,34.43
2017-05-21T06:58:48.546Z,34.25
2017-05-21T06:59:48.583Z,33.38
2017-05-21T07:00:48.650Z,33.67
2017-05-21T07:01:48.689Z,33.2
2017-05-21T07:02:48.736Z,32.9
2017-05-21T07:03:48.805Z,32.52
2017-05-21T07:04:48.841Z,32.13
2017-05-21T07:05:48.857Z,32.9
2017-05-21T07:06:48.920Z,33.41
2017-05-21T07:07:48.968Z,32.24
2017-05-21T07:08:49.016Z,31.95
2017-05-21T07:09:49.053Z,32.14
2017-05-21T07:10:49.842Z,32.24
2017-05-21T07:11:49.135Z,32.06
2017-05-21T07:12:49.198Z,31.19
2017-05-21T07:13:49.238Z,31.88
2017-05-21T07:14:49.293Z,31.9
2017-05-21T07:15:49.329Z,31.12
2017-05-21T07:16:49.373Z,30.52
2017-05-21T07:17:49.417Z,31.1
2017-05-21T07:18:49.467Z,31.01
2017-05-21T07:19:49.497Z,30.82
2017-05-21T07:20:49.560Z,29.85
2017-05-21T07:21:49.582Z,29.95
2017-05-21T07:22:49.652Z,30.15
2017-05-21T07:23:49.695Z,29.95
2017-05-21T07:24:49.780Z,29.86
2017-05-21T07:25:49.794Z,29.58
2017-05-21T07:26:49.834Z,29.39
2017-05-21T07:27:49.885Z,29.2
2017-05-21T07:28:49.934Z,27.81
2017-05-21T07:29:50.704Z,28.9
2017-05-21T07:30:50.021Z,29.48
2017-05-21T07:31:50.061Z,29.19
2017-05-21T07:32:50.099Z,27.72
2017-05-21T07:33:50.153Z,28.51
2017-05-21T07:34:50.193Z,28.31
2017-05-21T07:35:50.246Z,28.31
2017-05-21T07:36:50.283Z,27.73
2017-05-21T07:37:50.345Z,27.43
2017-05-21T07:38:50.399Z,27.73
2017-05-21T07:39:50.434Z,27.63
2017-05-21T07:40:50.479Z,27.63
2017-05-21T07:41:50.535Z,27.63
2017-05-21T07:42:50.583Z,28.04
2017-05-21T07:43:50.618Z,27.46
2017-05-21T07:44:50.647Z,27.17
2017-05-21T07:45:50.716Z,26.78
2017-05-21T07:46:50.772Z,26.98
2017-05-21T07:47:50.793Z,27.56
2017-05-21T07:48:50.863Z,27.06
2017-05-21T07:49:50.917Z,26.86
2017-05-21T07:50:50.952Z,27.06
2017-05-21T07:51:51.005Z,26.86
2017-05-21T07:52:51.044Z,26.95
2017-05-21T07:53:51.095Z,27.22
2017-05-21T07:54:51.149Z,27.22
2017-05-21T07:55:51.196Z,27.22
2017-05-21T07:56:51.221Z,27.53
2017-05-21T07:57:51.267Z,26.34
2017-05-21T07:58:51.331Z,26.93
2017-05-21T07:59:51.362Z,27.81
2017-05-21T08:00:51.404Z,28.13
2017-05-21T08:01:51.496Z,27.84
2017-05-21T08:02:51.494Z,27.66
2017-05-21T08:03:51.629Z,27.08
2017-05-21T08:04:51.606Z,27.4
2017-05-21T08:05:51.662Z,27.1
2017-05-21T08:06:51.769Z,27.11
2017-05-21T08:07:51.751Z,26.84
2017-05-21T08:08:51.804Z,27.24
2017-05-21T08:09:51.858Z,26.57
2017-05-21T08:10:52.005Z,26.47
2017-05-21T08:11:51.949Z,26.17
2017-05-21T08:12:51.993Z,26.17
2017-05-21T08:13:52.045Z,26.47
2017-05-21T08:14:52.100Z,26.07
2017-05-21T08:15:52.149Z,25.67
2017-05-21T08:16:52.198Z,26.65
2017-05-21T08:17:52.207Z,26.84
2017-05-21T08:18:52.287Z,27.04
2017-05-21T08:19:52.331Z,26.82
2017-05-21T08:20:52.391Z,26.94
2017-05-21T08:21:52.442Z,26.26
2017-05-21T08:22:52.489Z,25.87
2017-05-21T08:23:52.515Z,26.07
2017-05-21T08:24:52.582Z,25.78
2017-05-21T08:25:52.614Z,25.2
2017-05-21T08:26:52.680Z,25.98
2017-05-21T08:27:52.723Z,25.67
2017-05-21T08:28:52.775Z,25.49
2017-05-21T08:29:52.802Z,25.89
2017-05-21T08:30:52.874Z,25.78
2017-05-21T08:31:52.921Z,25.49
2017-05-21T08:32:52.976Z,25.19
2017-05-21T08:33:53.002Z,25.49
2017-05-21T08:34:53.073Z,25.38
2017-05-21T08:35:53.123Z,25.59
2017-05-21T08:36:53.171Z,25.38
2017-05-21T08:37:53.229Z,25.4
2017-05-21T08:38:53.279Z,25.01
2017-05-21T08:39:53.312Z,24.92
2017-05-21T08:40:53.372Z,25.12
2017-05-21T08:41:53.428Z,24.52
2017-05-21T08:42:53.473Z,24.82
2017-05-21T08:43:53.524Z,24.73
2017-05-21T08:44:53.568Z,24.73
2017-05-21T08:45:53.626Z,25.13
2017-05-21T08:46:53.679Z,24.82
2017-05-21T08:47:53.711Z,24.62
2017-05-21T08:48:53.773Z,24.93
2017-05-21T08:49:53.824Z,24.24
2017-05-21T08:50:53.879Z,24.33
2017-05-21T08:51:53.927Z,24.44
2017-05-21T08:52:53.977Z,24.24
2017-05-21T08:53:54.014Z,24.25
2017-05-21T08:54:54.078Z,24.45
2017-05-21T08:55:54.111Z,23.85
2017-05-21T08:56:54.177Z,24.25
2017-05-21T08:57:54.230Z,24.13
2017-05-21T08:58:54.274Z,24.32
2017-05-21T08:59:54.328Z,25.11
2017-05-21T09:00:54.383Z,24.62
2017-05-21T09:01:54.431Z,23.94
2017-05-21T09:02:54.457Z,24.33
2017-05-21T09:03:54.525Z,24.25
2017-05-21T09:04:54.583Z,24.15
2017-05-21T09:05:54.617Z,23.94
2017-05-21T09:06:54.686Z,24.43
2017-05-21T09:07:54.718Z,24.81
2017-05-21T09:08:54.800Z,24.52
2017-05-21T09:09:54.869Z,24.22
2017-05-21T09:10:54.896Z,24.33
2017-05-21T09:11:54.922Z,24.44
2017-05-21T09:12:54.990Z,24.04
2017-05-21T09:13:55.223Z,24.05
2017-05-21T09:14:55.111Z,23.85
2017-05-21T09:15:55.148Z,24.25
2017-05-21T09:16:55.260Z,24.25
2017-05-21T09:17:55.265Z,24.06
2017-05-21T09:18:55.295Z,23.56
2017-05-21T09:19:55.325Z,23.56
2017-05-21T09:20:55.405Z,24.05
2017-05-21T09:21:55.449Z,23.75
2017-05-21T09:22:55.496Z,24.33
2017-05-21T09:23:55.563Z,24.44
2017-05-21T09:24:55.595Z,24.54
2017-05-21T09:25:55.648Z,24.44
2017-05-21T09:26:55.718Z,24.26
2017-05-21T09:27:55.751Z,24.17
2017-05-21T09:28:55.820Z,24.1
2017-05-21T09:29:55.873Z,23.61
2017-05-21T09:30:55.932Z,23.32
2017-05-21T09:31:55.970Z,22.92
2017-05-21T09:32:56.031Z,23.6
2017-05-21T09:33:56.077Z,23.1
2017-05-21T09:34:56.134Z,23.3
2017-05-21T09:35:56.174Z,23.6
2017-05-21T09:36:56.236Z,23
2017-05-21T09:37:56.271Z,23.19
2017-05-21T09:38:56.340Z,23.47
2017-05-21T09:39:56.377Z,23.07
2017-05-21T09:40:56.458Z,22.99
2017-05-21T09:41:56.504Z,23.28
2017-05-21T09:42:56.551Z,23.3
2017-05-21T09:43:56.611Z,23
2017-05-21T09:44:56.634Z,22.5
2017-05-21T09:45:56.694Z,23.3
2017-05-21T09:46:56.770Z,23.28
2017-05-21T09:47:56.818Z,23.37
2017-05-21T09:48:56.865Z,23.18
2017-05-21T09:49:56.909Z,23.27
2017-05-21T09:50:56.985Z,23.68
2017-05-21T09:51:57.022Z,23.55
2017-05-21T09:52:57.152Z,24.02
2017-05-21T09:53:57.139Z,23.72
2017-05-21T09:54:57.188Z,24.39
2017-05-21T09:55:57.235Z,24.37
2017-05-21T09:56:57.270Z,23.98
2017-05-21T09:57:57.352Z,24.19
2017-05-21T09:58:57.401Z,23.9
2017-05-21T09:59:57.450Z,24.21
2017-05-21T10:00:57.501Z,23.63
2017-05-21T10:01:57.550Z,23.24
2017-05-21T10:02:57.610Z,22.95
2017-05-21T10:03:57.657Z,23.14
2017-05-21T10:04:58.021Z,23.74
2017-05-21T10:05:57.764Z,23.94
2017-05-21T10:06:57.779Z,23.55
2017-05-21T10:07:57.870Z,23.15
2017-05-21T10:08:57.913Z,23.55
2017-05-21T10:09:57.951Z,23.55
2017-05-21T10:10:58.029Z,23.55
2017-05-21T10:11:58.113Z,23.18
2017-05-21T10:12:58.111Z,22.88
2017-05-21T10:13:58.184Z,23.19
2017-05-21T10:14:58.232Z,23.95
2017-05-21T10:15:58.278Z,24.28
2017-05-21T10:16:58.361Z,24.47
2017-05-21T10:17:58.382Z,23.78
2017-05-21T10:18:58.428Z,23.9
2017-05-21T10:19:58.471Z,23.32
2017-05-21T10:20:58.573Z,22.83
2017-05-21T10:21:58.560Z,23.03
2017-05-21T10:22:58.639Z,22.94
2017-05-21T10:23:58.686Z,22.94
2017-05-21T10:24:58.786Z,24.2
2017-05-21T10:25:58.785Z,24.96
2017-05-21T10:26:58.831Z,25.05
2017-05-21T10:27:58.874Z,24.16
2017-05-21T10:28:58.930Z,23.77
2017-05-21T10:29:59.156Z,23.49
2017-05-21T10:30:59.024Z,23.39
2017-05-21T10:31:59.051Z,23.11
2017-05-21T10:32:59.118Z,23.39
2017-05-21T10:33:59.159Z,23.69
2017-05-21T10:34:59.214Z,23.5
2017-05-21T10:35:59.269Z,22.82
2017-05-21T10:36:59.365Z,22.92
2017-05-21T10:37:59.351Z,22.72
2017-05-21T10:38:59.381Z,23.03
2017-05-21T10:39:59.451Z,23.13
2017-05-21T10:40:59.485Z,23.23
2017-05-21T10:41:59.538Z,23.23
2017-05-21T10:42:59.585Z,23.23
2017-05-21T10:43:59.632Z,23.23
2017-05-21T10:44:59.680Z,23.64
2017-05-21T10:45:59.703Z,23.72
2017-05-21T10:46:59.750Z,23.83
2017-05-21T10:47:59.812Z,23.23
2017-05-21T10:48:59.859Z,22.83
2017-05-21T10:49:59.885Z,22.93
2017-05-21T10:50:59.952Z,22.62
2017-05-21T10:51:59.971Z,23.11
2017-05-21T10:53:00.057Z,23.41
2017-05-21T10:54:00.087Z,22.52
2017-05-21T10:55:00.133Z,22.32
2017-05-21T10:56:00.182Z,22.62
2017-05-21T10:57:00.240Z,22.6
2017-05-21T10:58:00.256Z,22.1
2017-05-21T10:59:00.307Z,22.49
2017-05-21T11:00:00.346Z,22.88
2017-05-21T11:01:00.387Z,22.88
2017-05-21T11:02:00.434Z,22.96
2017-05-21T11:03:00.479Z,23.56
2017-05-21T11:04:00.527Z,23.76
2017-05-21T11:05:00.787Z,23.18
2017-05-21T11:06:00.590Z,23.07
2017-05-21T11:07:00.629Z,23.07
2017-05-21T11:08:00.908Z,23.16
2017-05-21T11:09:00.726Z,22.96
2017-05-21T11:10:00.781Z,23.18
2017-05-21T11:11:00.823Z,22.78
2017-05-21T11:12:00.865Z,22.8
2017-05-21T11:13:00.869Z,22.81
2017-05-21T11:14:00.953Z,23.38
2017-05-21T11:15:00.992Z,24.72
2017-05-21T11:16:01.038Z,25.23
2017-05-21T11:17:01.094Z,26.57
2017-05-21T11:18:01.123Z,27.51
2017-05-21T11:19:01.169Z,29.13
2017-05-21T11:20:01.219Z,29.17
2017-05-21T11:21:01.249Z,29.06
2017-05-21T11:22:01.274Z,28.59
2017-05-21T11:23:01.328Z,27.95
2017-05-21T11:24:01.378Z,27.4
2017-05-21T11:25:01.403Z,26.34
2017-05-21T11:26:01.463Z,26.94
2017-05-21T11:27:01.481Z,26.89
2017-05-21T11:28:01.529Z,28.31
2017-05-21T11:29:01.593Z,28.86
2017-05-21T11:30:01.628Z,29.75
2017-05-21T11:31:01.747Z,30.21
2017-05-21T11:32:01.689Z,31.14
2017-05-21T11:33:01.749Z,31.78
2017-05-21T11:34:01.777Z,33.2
2017-05-21T11:35:01.851Z,34.03
2017-05-21T11:36:01.865Z,34.39
2017-05-21T11:37:01.901Z,36.2
2017-05-21T11:38:01.957Z,37.16
2017-05-21T11:39:01.983Z,38.09
2017-05-21T11:40:02.040Z,38.65
2017-05-21T11:41:02.083Z,39.51
2017-05-21T11:42:02.118Z,39.59
2017-05-21T11:43:02.164Z,40.92
2017-05-21T11:44:02.186Z,41.1
2017-05-21T11:45:02.250Z,41.49
2017-05-21T11:46:02.323Z,41.17
2017-05-21T11:47:02.364Z,42.72
2017-05-21T11:48:02.596Z,42.92
2017-05-21T11:49:02.443Z,42.9
2017-05-21T11:50:02.458Z,42.8
2017-05-21T11:51:02.670Z,43.38
2017-05-21T11:52:02.525Z,43.38
2017-05-21T11:53:02.569Z,43.38
2017-05-21T11:54:02.618Z,42.71
2017-05-21T11:55:02.655Z,42.61
2017-05-21T11:56:02.682Z,42.61
2017-05-21T11:57:02.734Z,43.27
2017-05-21T11:58:02.803Z,43.65
2017-05-21T11:59:02.820Z,43.95
2017-05-21T12:00:02.870Z,42.78
2017-05-21T12:01:02.879Z,43.73
2017-05-21T12:02:02.941Z,44.77
2017-05-21T12:03:02.987Z,43.61
2017-05-21T12:04:03.020Z,44.57
2017-05-21T12:05:03.069Z,44.84
2017-05-21T12:06:03.102Z,44.94
2017-05-21T12:07:03.142Z,44.84
2017-05-21T12:08:03.197Z,44.46
2017-05-21T12:09:03.226Z,44.29
2017-05-21T12:10:03.252Z,44.77
2017-05-21T12:11:03.322Z,45.06
2017-05-21T12:12:03.358Z,45.06
2017-05-21T12:13:03.388Z,44.96
2017-05-21T12:14:03.427Z,44.87
2017-05-21T12:15:03.462Z,45.06
2017-05-21T12:16:03.476Z,45.16
2017-05-21T12:17:03.547Z,44.75
2017-05-21T12:18:03.589Z,45.01
2017-05-21T12:19:03.634Z,45.79
2017-05-21T12:20:03.679Z,46.37
2017-05-21T12:21:03.693Z,46.17
2017-05-21T12:22:03.746Z,46.34
2017-05-21T12:23:03.789Z,46.25
2017-05-21T12:24:03.835Z,46.34
2017-05-21T12:25:03.860Z,46.83
2017-05-21T12:26:03.877Z,46.83
2017-05-21T12:27:03.948Z,47.7
2017-05-21T12:28:03.996Z,47.22
2017-05-21T12:29:04.044Z,46.92
2017-05-21T12:30:04.078Z,46.27
2017-05-21T12:31:04.115Z,46.08
2017-05-21T12:32:04.152Z,45.98
2017-05-21T12:33:04.189Z,46.27
2017-05-21T12:34:04.231Z,46.27
2017-05-21T12:35:04.295Z,46.47
2017-05-21T12:36:04.288Z,46.56
2017-05-21T12:37:04.313Z,46.75
2017-05-21T12:38:04.397Z,47.43
2017-05-21T12:39:04.435Z,46.95
2017-05-21T12:40:04.494Z,46.17
2017-05-21T12:41:04.476Z,46.47
2017-05-21T12:42:04.545Z,46.56
2017-05-21T12:43:04.588Z,46.47
2017-05-21T12:44:04.610Z,45.89
2017-05-21T12:45:04.719Z,46.47
2017-05-21T12:46:04.687Z,46.66
2017-05-21T12:47:04.745Z,47.05
2017-05-21T12:48:04.790Z,46.56
2017-05-21T12:49:04.825Z,46.47
2017-05-21T12:50:04.850Z,45.98
2017-05-21T12:51:04.887Z,45.69
2017-05-21T12:52:04.990Z,45.98
2017-05-21T12:53:04.986Z,45.98
2017-05-21T12:54:05.023Z,46.08
2017-05-21T12:55:05.071Z,46.85